sensor_id;sensor_type;location;lat;lon;timestamp;P1;durP1;ratioP1;P2;durP2;ratioP2
37483;SDS011;23337;52.212;9.926;2024-03-25T00:01:22;3.43;;;1.40;;
37483;SDS011;23337;52.212;9.926;2024-03-25T00:03:48;3.00;;;1.37;;
37483;SDS011;23337;52.212;9.926;2024-03-25T00:06:14;3.17;;;2.00;;
37483;SDS011;23337;52.212;9.926;2024-03-25T00:08:41;1.73;;;1.07;;
37483;SDS011;23337;52.212;9.926;2024-03-25T00:11:07;2.53;;;1.00;;
37483;SDS011;23337;52.212;9.926;2024-03-25T00:13:33;1.47;;;1.20;;
37483;SDS011;23337;52.212;9.926;2024-03-25T00:15:59;6.00;;;1.40;;
37483;SDS011;23337;52.212;9.926;2024-03-25T00:18:25;8.07;;;1.30;;
37483;SDS011;23337;52.212;9.926;2024-03-25T00:20:51;2.77;;;0.90;;
37483;SDS011;23337;52.212;9.926;2024-03-25T00:23:17;2.50;;;1.00;;
37483;SDS011;23337;52.212;9.926;2024-03-25T00:25:43;1.77;;;1.00;;
37483;SDS011;23337;52.212;9.926;2024-03-25T00:28:09;4.47;;;2.03;;
37483;SDS011;23337;52.212;9.926;2024-03-25T00:30:35;2.43;;;1.57;;
37483;SDS011;23337;52.212;9.926;2024-03-25T00:33:01;4.07;;;1.80;;
37483;SDS011;23337;52.212;9.926;2024-03-25T00:35:27;5.43;;;1.33;;
37483;SDS011;23337;52.212;9.926;2024-03-25T00:37:53;3.27;;;1.13;;
37483;SDS011;23337;52.212;9.926;2024-03-25T00:40:19;3.37;;;1.17;;
37483;SDS011;23337;52.212;9.926;2024-03-25T00:42:45;3.83;;;1.33;;
37483;SDS011;23337;52.212;9.926;2024-03-25T00:45:12;2.40;;;1.43;;
37483;SDS011;23337;52.212;9.926;2024-03-25T00:47:38;1.40;;;0.80;;
37483;SDS011;23337;52.212;9.926;2024-03-25T00:50:05;1.30;;;1.00;;
37483;SDS011;23337;52.212;9.926;2024-03-25T00:52:31;3.10;;;1.30;;
37483;SDS011;23337;52.212;9.926;2024-03-25T00:54:57;3.27;;;1.10;;
37483;SDS011;23337;52.212;9.926;2024-03-25T00:57:23;3.53;;;1.00;;
37483;SDS011;23337;52.212;9.926;2024-03-25T00:59:49;2.13;;;1.03;;
37483;SDS011;23337;52.212;9.926;2024-03-25T01:02:15;6.20;;;1.60;;
37483;SDS011;23337;52.212;9.926;2024-03-25T01:04:40;4.27;;;1.47;;
37483;SDS011;23337;52.212;9.926;2024-03-25T01:07:06;3.53;;;1.50;;
37483;SDS011;23337;52.212;9.926;2024-03-25T01:09:33;5.87;;;1.57;;
37483;SDS011;23337;52.212;9.926;2024-03-25T01:11:59;3.17;;;1.40;;
37483;SDS011;23337;52.212;9.926;2024-03-25T01:14:25;5.27;;;1.70;;
37483;SDS011;23337;52.212;9.926;2024-03-25T01:16:51;4.43;;;1.67;;
37483;SDS011;23337;52.212;9.926;2024-03-25T01:19:17;7.30;;;3.10;;
37483;SDS011;23337;52.212;9.926;2024-03-25T01:21:43;5.80;;;1.93;;
37483;SDS011;23337;52.212;9.926;2024-03-25T01:24:09;4.93;;;2.17;;
37483;SDS011;23337;52.212;9.926;2024-03-25T01:26:35;3.53;;;1.67;;
37483;SDS011;23337;52.212;9.926;2024-03-25T01:29:01;7.90;;;2.53;;
37483;SDS011;23337;52.212;9.926;2024-03-25T01:31:27;5.77;;;1.73;;
37483;SDS011;23337;52.212;9.926;2024-03-25T01:33:53;4.80;;;1.80;;
37483;SDS011;23337;52.212;9.926;2024-03-25T01:36:20;6.90;;;1.93;;
37483;SDS011;23337;52.212;9.926;2024-03-25T01:38:46;8.00;;;2.67;;
37483;SDS011;23337;52.212;9.926;2024-03-25T01:41:13;5.97;;;1.87;;
37483;SDS011;23337;52.212;9.926;2024-03-25T01:43:42;5.40;;;2.00;;
37483;SDS011;23337;52.212;9.926;2024-03-25T01:46:08;3.87;;;1.70;;
37483;SDS011;23337;52.212;9.926;2024-03-25T01:48:35;5.83;;;1.60;;
37483;SDS011;23337;52.212;9.926;2024-03-25T01:51:01;11.83;;;3.07;;
37483;SDS011;23337;52.212;9.926;2024-03-25T01:53:27;4.67;;;2.00;;
37483;SDS011;23337;52.212;9.926;2024-03-25T01:55:55;6.33;;;4.40;;
37483;SDS011;23337;52.212;9.926;2024-03-25T01:58:22;8.17;;;2.27;;
37483;SDS011;23337;52.212;9.926;2024-03-25T02:00:48;4.33;;;1.50;;
37483;SDS011;23337;52.212;9.926;2024-03-25T02:03:14;3.17;;;1.60;;
37483;SDS011;23337;52.212;9.926;2024-03-25T02:05:41;6.77;;;1.60;;
37483;SDS011;23337;52.212;9.926;2024-03-25T02:08:07;5.30;;;1.60;;
37483;SDS011;23337;52.212;9.926;2024-03-25T02:10:33;6.03;;;2.50;;
37483;SDS011;23337;52.212;9.926;2024-03-25T02:12:59;3.67;;;1.67;;
37483;SDS011;23337;52.212;9.926;2024-03-25T02:15:25;4.53;;;1.53;;
37483;SDS011;23337;52.212;9.926;2024-03-25T02:17:52;5.93;;;1.70;;
37483;SDS011;23337;52.212;9.926;2024-03-25T02:20:18;7.43;;;2.30;;
37483;SDS011;23337;52.212;9.926;2024-03-25T02:22:44;4.13;;;1.77;;
37483;SDS011;23337;52.212;9.926;2024-03-25T02:25:10;5.10;;;1.90;;
37483;SDS011;23337;52.212;9.926;2024-03-25T02:27:36;6.37;;;1.90;;
37483;SDS011;23337;52.212;9.926;2024-03-25T02:30:06;4.97;;;2.57;;
37483;SDS011;23337;52.212;9.926;2024-03-25T02:32:33;5.40;;;1.77;;
37483;SDS011;23337;52.212;9.926;2024-03-25T02:34:59;7.67;;;1.93;;
37483;SDS011;23337;52.212;9.926;2024-03-25T02:37:26;7.37;;;1.90;;
37483;SDS011;23337;52.212;9.926;2024-03-25T02:39:53;3.37;;;1.53;;
37483;SDS011;23337;52.212;9.926;2024-03-25T02:42:20;7.13;;;1.60;;
37483;SDS011;23337;52.212;9.926;2024-03-25T02:44:46;3.93;;;1.73;;
37483;SDS011;23337;52.212;9.926;2024-03-25T02:47:12;4.33;;;1.70;;
37483;SDS011;23337;52.212;9.926;2024-03-25T02:49:38;5.80;;;1.60;;
37483;SDS011;23337;52.212;9.926;2024-03-25T02:52:04;4.20;;;1.40;;
37483;SDS011;23337;52.212;9.926;2024-03-25T02:54:31;4.07;;;1.70;;
37483;SDS011;23337;52.212;9.926;2024-03-25T02:56:57;4.97;;;1.67;;
37483;SDS011;23337;52.212;9.926;2024-03-25T02:59:23;2.83;;;1.67;;
37483;SDS011;23337;52.212;9.926;2024-03-25T03:01:49;5.03;;;1.33;;
37483;SDS011;23337;52.212;9.926;2024-03-25T03:04:15;3.93;;;1.30;;
37483;SDS011;23337;52.212;9.926;2024-03-25T03:06:41;3.27;;;1.13;;
37483;SDS011;23337;52.212;9.926;2024-03-25T03:09:06;3.17;;;1.40;;
37483;SDS011;23337;52.212;9.926;2024-03-25T03:11:32;2.50;;;1.33;;
37483;SDS011;23337;52.212;9.926;2024-03-25T03:13:58;2.60;;;1.43;;
37483;SDS011;23337;52.212;9.926;2024-03-25T03:16:24;5.27;;;1.50;;
37483;SDS011;23337;52.212;9.926;2024-03-25T03:18:50;5.20;;;1.70;;
37483;SDS011;23337;52.212;9.926;2024-03-25T03:21:16;5.97;;;1.90;;
37483;SDS011;23337;52.212;9.926;2024-03-25T03:23:42;4.77;;;1.93;;
37483;SDS011;23337;52.212;9.926;2024-03-25T03:26:08;3.97;;;2.57;;
37483;SDS011;23337;52.212;9.926;2024-03-25T03:28:34;5.20;;;1.57;;
37483;SDS011;23337;52.212;9.926;2024-03-25T03:31:00;3.43;;;1.30;;
37483;SDS011;23337;52.212;9.926;2024-03-25T03:33:26;3.57;;;1.50;;
37483;SDS011;23337;52.212;9.926;2024-03-25T03:35:52;5.67;;;1.53;;
37483;SDS011;23337;52.212;9.926;2024-03-25T03:38:20;7.03;;;1.73;;
37483;SDS011;23337;52.212;9.926;2024-03-25T03:40:58;2.90;;;1.50;;
37483;SDS011;23337;52.212;9.926;2024-03-25T03:43:24;3.40;;;1.40;;
37483;SDS011;23337;52.212;9.926;2024-03-25T03:45:50;5.93;;;1.50;;
37483;SDS011;23337;52.212;9.926;2024-03-25T03:48:16;2.53;;;1.50;;
37483;SDS011;23337;52.212;9.926;2024-03-25T03:50:42;3.17;;;1.60;;
37483;SDS011;23337;52.212;9.926;2024-03-25T03:53:08;5.13;;;1.57;;
37483;SDS011;23337;52.212;9.926;2024-03-25T03:55:35;4.70;;;1.57;;
37483;SDS011;23337;52.212;9.926;2024-03-25T03:58:01;3.80;;;1.50;;
37483;SDS011;23337;52.212;9.926;2024-03-25T04:00:27;4.47;;;1.90;;
37483;SDS011;23337;52.212;9.926;2024-03-25T04:02:53;3.67;;;1.37;;
37483;SDS011;23337;52.212;9.926;2024-03-25T04:05:19;4.10;;;1.37;;
37483;SDS011;23337;52.212;9.926;2024-03-25T04:07:45;4.50;;;2.03;;
37483;SDS011;23337;52.212;9.926;2024-03-25T04:10:12;4.37;;;1.37;;
37483;SDS011;23337;52.212;9.926;2024-03-25T04:12:39;5.50;;;1.50;;
37483;SDS011;23337;52.212;9.926;2024-03-25T04:15:05;5.50;;;1.30;;
37483;SDS011;23337;52.212;9.926;2024-03-25T04:17:31;6.53;;;1.33;;
37483;SDS011;23337;52.212;9.926;2024-03-25T04:20:00;3.87;;;1.57;;
37483;SDS011;23337;52.212;9.926;2024-03-25T04:22:27;5.17;;;1.60;;
37483;SDS011;23337;52.212;9.926;2024-03-25T04:24:53;4.37;;;1.07;;
37483;SDS011;23337;52.212;9.926;2024-03-25T04:27:19;3.43;;;1.10;;
37483;SDS011;23337;52.212;9.926;2024-03-25T04:29:48;5.30;;;1.40;;
37483;SDS011;23337;52.212;9.926;2024-03-25T04:32:13;5.70;;;2.77;;
37483;SDS011;23337;52.212;9.926;2024-03-25T04:34:39;3.80;;;1.43;;
37483;SDS011;23337;52.212;9.926;2024-03-25T04:37:05;4.03;;;1.13;;
37483;SDS011;23337;52.212;9.926;2024-03-25T04:39:31;2.67;;;1.13;;
37483;SDS011;23337;52.212;9.926;2024-03-25T04:41:57;4.33;;;1.30;;
37483;SDS011;23337;52.212;9.926;2024-03-25T04:44:23;3.53;;;1.07;;
37483;SDS011;23337;52.212;9.926;2024-03-25T04:46:49;3.83;;;1.03;;
37483;SDS011;23337;52.212;9.926;2024-03-25T04:49:15;3.83;;;2.43;;
37483;SDS011;23337;52.212;9.926;2024-03-25T04:51:41;3.67;;;1.20;;
37483;SDS011;23337;52.212;9.926;2024-03-25T04:54:07;4.10;;;1.30;;
37483;SDS011;23337;52.212;9.926;2024-03-25T04:56:33;4.27;;;1.40;;
37483;SDS011;23337;52.212;9.926;2024-03-25T04:58:59;3.27;;;1.07;;
37483;SDS011;23337;52.212;9.926;2024-03-25T05:01:26;4.63;;;1.47;;
37483;SDS011;23337;52.212;9.926;2024-03-25T05:03:53;7.87;;;3.00;;
37483;SDS011;23337;52.212;9.926;2024-03-25T05:06:19;5.67;;;2.17;;
37483;SDS011;23337;52.212;9.926;2024-03-25T05:08:45;5.83;;;1.53;;
37483;SDS011;23337;52.212;9.926;2024-03-25T05:11:11;14.23;;;3.10;;
37483;SDS011;23337;52.212;9.926;2024-03-25T05:13:37;8.60;;;3.07;;
37483;SDS011;23337;52.212;9.926;2024-03-25T05:16:03;5.67;;;1.97;;
37483;SDS011;23337;52.212;9.926;2024-03-25T05:18:29;7.53;;;2.10;;
37483;SDS011;23337;52.212;9.926;2024-03-25T05:20:55;4.00;;;1.60;;
37483;SDS011;23337;52.212;9.926;2024-03-25T05:23:21;4.43;;;1.70;;
37483;SDS011;23337;52.212;9.926;2024-03-25T05:25:47;4.80;;;1.50;;
37483;SDS011;23337;52.212;9.926;2024-03-25T05:28:13;4.20;;;1.87;;
37483;SDS011;23337;52.212;9.926;2024-03-25T05:30:39;10.60;;;2.00;;
37483;SDS011;23337;52.212;9.926;2024-03-25T05:33:05;3.57;;;1.60;;
37483;SDS011;23337;52.212;9.926;2024-03-25T05:35:31;7.93;;;2.37;;
37483;SDS011;23337;52.212;9.926;2024-03-25T05:38:01;5.33;;;2.33;;
37483;SDS011;23337;52.212;9.926;2024-03-25T05:40:28;7.50;;;2.73;;
37483;SDS011;23337;52.212;9.926;2024-03-25T05:42:54;10.67;;;2.93;;
37483;SDS011;23337;52.212;9.926;2024-03-25T05:45:20;9.23;;;2.53;;
37483;SDS011;23337;52.212;9.926;2024-03-25T05:47:47;11.03;;;2.53;;
37483;SDS011;23337;52.212;9.926;2024-03-25T05:50:13;13.03;;;2.60;;
37483;SDS011;23337;52.212;9.926;2024-03-25T05:52:38;11.33;;;2.80;;
37483;SDS011;23337;52.212;9.926;2024-03-25T05:55:04;10.80;;;3.03;;
37483;SDS011;23337;52.212;9.926;2024-03-25T05:57:30;9.40;;;2.90;;
37483;SDS011;23337;52.212;9.926;2024-03-25T05:59:56;6.67;;;2.23;;
37483;SDS011;23337;52.212;9.926;2024-03-25T06:02:22;8.63;;;2.63;;
37483;SDS011;23337;52.212;9.926;2024-03-25T06:04:49;8.43;;;2.67;;
37483;SDS011;23337;52.212;9.926;2024-03-25T06:07:15;8.37;;;2.47;;
37483;SDS011;23337;52.212;9.926;2024-03-25T06:09:41;12.97;;;3.53;;
37483;SDS011;23337;52.212;9.926;2024-03-25T06:12:07;7.00;;;2.63;;
37483;SDS011;23337;52.212;9.926;2024-03-25T06:14:33;13.67;;;2.17;;
37483;SDS011;23337;52.212;9.926;2024-03-25T06:16:59;8.83;;;2.50;;
37483;SDS011;23337;52.212;9.926;2024-03-25T06:19:25;10.70;;;3.37;;
37483;SDS011;23337;52.212;9.926;2024-03-25T06:21:51;7.90;;;2.90;;
37483;SDS011;23337;52.212;9.926;2024-03-25T06:24:17;9.33;;;2.90;;
37483;SDS011;23337;52.212;9.926;2024-03-25T06:26:43;7.77;;;2.00;;
37483;SDS011;23337;52.212;9.926;2024-03-25T06:29:09;9.27;;;2.13;;
37483;SDS011;23337;52.212;9.926;2024-03-25T06:31:35;7.67;;;2.50;;
37483;SDS011;23337;52.212;9.926;2024-03-25T06:34:20;11.43;;;1.90;;
37483;SDS011;23337;52.212;9.926;2024-03-25T06:36:48;7.10;;;1.87;;
37483;SDS011;23337;52.212;9.926;2024-03-25T06:39:15;6.10;;;1.83;;
37483;SDS011;23337;52.212;9.926;2024-03-25T06:41:41;9.60;;;2.53;;
37483;SDS011;23337;52.212;9.926;2024-03-25T06:44:07;6.87;;;2.40;;
37483;SDS011;23337;52.212;9.926;2024-03-25T06:46:33;11.40;;;3.70;;
37483;SDS011;23337;52.212;9.926;2024-03-25T06:48:59;9.27;;;2.63;;
37483;SDS011;23337;52.212;9.926;2024-03-25T06:51:25;7.97;;;2.57;;
37483;SDS011;23337;52.212;9.926;2024-03-25T06:53:51;8.63;;;2.63;;
37483;SDS011;23337;52.212;9.926;2024-03-25T06:56:17;7.40;;;1.87;;
37483;SDS011;23337;52.212;9.926;2024-03-25T06:58:43;3.53;;;1.40;;
37483;SDS011;23337;52.212;9.926;2024-03-25T07:01:09;5.67;;;1.57;;
37483;SDS011;23337;52.212;9.926;2024-03-25T07:03:37;3.77;;;1.80;;
37483;SDS011;23337;52.212;9.926;2024-03-25T07:06:03;4.10;;;1.90;;
37483;SDS011;23337;52.212;9.926;2024-03-25T07:08:30;10.27;;;2.70;;
37483;SDS011;23337;52.212;9.926;2024-03-25T07:10:56;13.30;;;3.47;;
37483;SDS011;23337;52.212;9.926;2024-03-25T07:13:22;10.73;;;3.13;;
37483;SDS011;23337;52.212;9.926;2024-03-25T07:15:49;10.83;;;2.70;;
37483;SDS011;23337;52.212;9.926;2024-03-25T07:18:15;12.27;;;2.90;;
37483;SDS011;23337;52.212;9.926;2024-03-25T07:20:41;13.07;;;3.27;;
37483;SDS011;23337;52.212;9.926;2024-03-25T07:23:08;13.27;;;3.83;;
37483;SDS011;23337;52.212;9.926;2024-03-25T07:25:34;8.93;;;3.77;;
37483;SDS011;23337;52.212;9.926;2024-03-25T07:28:00;8.17;;;2.87;;
37483;SDS011;23337;52.212;9.926;2024-03-25T07:30:26;10.03;;;3.67;;
37483;SDS011;23337;52.212;9.926;2024-03-25T07:32:55;9.20;;;3.00;;
37483;SDS011;23337;52.212;9.926;2024-03-25T07:35:21;8.77;;;2.20;;
37483;SDS011;23337;52.212;9.926;2024-03-25T07:37:47;9.03;;;2.37;;
37483;SDS011;23337;52.212;9.926;2024-03-25T07:40:16;9.53;;;2.50;;
37483;SDS011;23337;52.212;9.926;2024-03-25T07:42:42;6.70;;;2.17;;
37483;SDS011;23337;52.212;9.926;2024-03-25T07:45:08;8.10;;;2.40;;
37483;SDS011;23337;52.212;9.926;2024-03-25T07:47:35;11.87;;;2.80;;
37483;SDS011;23337;52.212;9.926;2024-03-25T07:50:01;11.97;;;3.03;;
37483;SDS011;23337;52.212;9.926;2024-03-25T07:52:27;8.20;;;2.70;;
37483;SDS011;23337;52.212;9.926;2024-03-25T07:54:53;9.57;;;3.40;;
37483;SDS011;23337;52.212;9.926;2024-03-25T07:57:19;8.70;;;2.20;;
37483;SDS011;23337;52.212;9.926;2024-03-25T07:59:45;10.73;;;4.27;;
37483;SDS011;23337;52.212;9.926;2024-03-25T08:02:11;11.33;;;3.53;;
37483;SDS011;23337;52.212;9.926;2024-03-25T08:04:37;11.50;;;3.97;;
37483;SDS011;23337;52.212;9.926;2024-03-25T08:07:03;6.27;;;3.07;;
37483;SDS011;23337;52.212;9.926;2024-03-25T08:09:29;9.37;;;3.27;;
37483;SDS011;23337;52.212;9.926;2024-03-25T08:11:55;8.43;;;3.10;;
37483;SDS011;23337;52.212;9.926;2024-03-25T08:14:21;8.00;;;2.80;;
37483;SDS011;23337;52.212;9.926;2024-03-25T08:16:48;6.67;;;3.30;;
37483;SDS011;23337;52.212;9.926;2024-03-25T08:19:14;8.50;;;2.47;;
37483;SDS011;23337;52.212;9.926;2024-03-25T08:21:40;13.23;;;3.87;;
37483;SDS011;23337;52.212;9.926;2024-03-25T08:24:06;6.37;;;2.30;;
37483;SDS011;23337;52.212;9.926;2024-03-25T08:26:32;15.40;;;4.60;;
37483;SDS011;23337;52.212;9.926;2024-03-25T08:28:58;9.63;;;3.60;;
37483;SDS011;23337;52.212;9.926;2024-03-25T08:31:24;9.97;;;3.60;;
37483;SDS011;23337;52.212;9.926;2024-03-25T08:33:50;12.93;;;2.77;;
37483;SDS011;23337;52.212;9.926;2024-03-25T08:36:16;12.63;;;3.17;;
37483;SDS011;23337;52.212;9.926;2024-03-25T08:38:43;7.50;;;2.70;;
37483;SDS011;23337;52.212;9.926;2024-03-25T08:41:09;10.17;;;3.03;;
37483;SDS011;23337;52.212;9.926;2024-03-25T08:43:35;10.60;;;3.60;;
37483;SDS011;23337;52.212;9.926;2024-03-25T08:46:01;8.43;;;2.27;;
37483;SDS011;23337;52.212;9.926;2024-03-25T08:48:28;9.77;;;2.87;;
37483;SDS011;23337;52.212;9.926;2024-03-25T08:50:54;6.20;;;2.37;;
37483;SDS011;23337;52.212;9.926;2024-03-25T08:53:20;13.50;;;2.90;;
37483;SDS011;23337;52.212;9.926;2024-03-25T08:55:46;9.70;;;3.07;;
37483;SDS011;23337;52.212;9.926;2024-03-25T08:58:13;5.63;;;2.20;;
37483;SDS011;23337;52.212;9.926;2024-03-25T09:00:39;11.33;;;3.70;;
37483;SDS011;23337;52.212;9.926;2024-03-25T09:03:05;8.77;;;3.30;;
37483;SDS011;23337;52.212;9.926;2024-03-25T09:05:31;10.23;;;2.70;;
37483;SDS011;23337;52.212;9.926;2024-03-25T09:07:58;10.17;;;2.40;;
37483;SDS011;23337;52.212;9.926;2024-03-25T09:10:24;12.60;;;2.83;;
37483;SDS011;23337;52.212;9.926;2024-03-25T09:13:09;3.87;;;1.63;;
37483;SDS011;23337;52.212;9.926;2024-03-25T09:15:35;12.70;;;3.10;;
37483;SDS011;23337;52.212;9.926;2024-03-25T09:18:01;14.07;;;3.83;;
37483;SDS011;23337;52.212;9.926;2024-03-25T09:20:27;12.37;;;2.70;;
37483;SDS011;23337;52.212;9.926;2024-03-25T09:22:53;8.43;;;2.23;;
37483;SDS011;23337;52.212;9.926;2024-03-25T09:25:19;9.97;;;2.10;;
37483;SDS011;23337;52.212;9.926;2024-03-25T09:27:46;11.17;;;2.50;;
37483;SDS011;23337;52.212;9.926;2024-03-25T09:30:12;13.13;;;2.20;;
37483;SDS011;23337;52.212;9.926;2024-03-25T09:32:38;9.83;;;1.67;;
37483;SDS011;23337;52.212;9.926;2024-03-25T09:35:04;12.30;;;2.50;;
37483;SDS011;23337;52.212;9.926;2024-03-25T09:37:30;12.27;;;2.80;;
37483;SDS011;23337;52.212;9.926;2024-03-25T09:39:57;10.23;;;2.50;;
37483;SDS011;23337;52.212;9.926;2024-03-25T09:42:27;8.33;;;2.10;;
37483;SDS011;23337;52.212;9.926;2024-03-25T09:44:54;11.90;;;1.90;;
37483;SDS011;23337;52.212;9.926;2024-03-25T09:47:21;9.30;;;2.00;;
37483;SDS011;23337;52.212;9.926;2024-03-25T09:49:47;7.87;;;1.70;;
37483;SDS011;23337;52.212;9.926;2024-03-25T09:52:14;7.40;;;1.40;;
37483;SDS011;23337;52.212;9.926;2024-03-25T09:54:40;10.93;;;3.00;;
37483;SDS011;23337;52.212;9.926;2024-03-25T09:57:06;6.30;;;1.70;;
37483;SDS011;23337;52.212;9.926;2024-03-25T09:59:32;7.93;;;2.23;;
37483;SDS011;23337;52.212;9.926;2024-03-25T10:01:58;7.73;;;2.17;;
37483;SDS011;23337;52.212;9.926;2024-03-25T10:04:25;7.63;;;2.73;;
37483;SDS011;23337;52.212;9.926;2024-03-25T10:06:51;4.30;;;1.67;;
37483;SDS011;23337;52.212;9.926;2024-03-25T10:09:20;8.03;;;2.00;;
37483;SDS011;23337;52.212;9.926;2024-03-25T10:11:49;8.27;;;3.57;;
37483;SDS011;23337;52.212;9.926;2024-03-25T10:14:15;8.03;;;2.40;;
37483;SDS011;23337;52.212;9.926;2024-03-25T10:16:42;5.90;;;2.30;;
37483;SDS011;23337;52.212;9.926;2024-03-25T10:19:08;10.73;;;2.53;;
37483;SDS011;23337;52.212;9.926;2024-03-25T10:21:34;7.70;;;1.70;;
37483;SDS011;23337;52.212;9.926;2024-03-25T10:24:00;11.00;;;2.57;;
37483;SDS011;23337;52.212;9.926;2024-03-25T10:26:30;5.43;;;1.30;;
37483;SDS011;23337;52.212;9.926;2024-03-25T10:29:00;6.93;;;1.80;;
37483;SDS011;23337;52.212;9.926;2024-03-25T10:31:27;6.57;;;1.73;;
37483;SDS011;23337;52.212;9.926;2024-03-25T10:33:53;5.97;;;1.17;;
37483;SDS011;23337;52.212;9.926;2024-03-25T10:36:19;4.83;;;1.03;;
37483;SDS011;23337;52.212;9.926;2024-03-25T10:38:45;6.73;;;1.10;;
37483;SDS011;23337;52.212;9.926;2024-03-25T11:02:47;5.53;;;2.00;;
37483;SDS011;23337;52.212;9.926;2024-03-25T11:05:13;3.53;;;1.63;;
37483;SDS011;23337;52.212;9.926;2024-03-25T11:07:40;4.53;;;1.47;;
37483;SDS011;23337;52.212;9.926;2024-03-25T11:10:08;5.60;;;1.53;;
37483;SDS011;23337;52.212;9.926;2024-03-25T11:12:35;6.40;;;1.37;;
37483;SDS011;23337;52.212;9.926;2024-03-25T11:15:02;7.07;;;1.73;;
37483;SDS011;23337;52.212;9.926;2024-03-25T11:17:28;5.07;;;1.40;;
37483;SDS011;23337;52.212;9.926;2024-03-25T11:19:54;4.97;;;1.33;;
37483;SDS011;23337;52.212;9.926;2024-03-25T11:22:24;6.47;;;1.37;;
37483;SDS011;23337;52.212;9.926;2024-03-25T11:24:50;5.13;;;1.20;;
37483;SDS011;23337;52.212;9.926;2024-03-25T11:27:26;3.53;;;1.10;;
37483;SDS011;23337;52.212;9.926;2024-03-25T11:29:52;5.30;;;1.50;;
37483;SDS011;23337;52.212;9.926;2024-03-25T11:32:18;9.17;;;1.07;;
37483;SDS011;23337;52.212;9.926;2024-03-25T11:34:50;6.97;;;1.63;;
37483;SDS011;23337;52.212;9.926;2024-03-25T11:37:16;3.23;;;1.00;;
37483;SDS011;23337;52.212;9.926;2024-03-25T11:39:43;5.83;;;1.17;;
37483;SDS011;23337;52.212;9.926;2024-03-25T11:42:09;6.93;;;2.37;;
37483;SDS011;23337;52.212;9.926;2024-03-25T11:44:36;3.10;;;0.80;;
37483;SDS011;23337;52.212;9.926;2024-03-25T11:47:03;4.43;;;0.80;;
37483;SDS011;23337;52.212;9.926;2024-03-25T11:49:30;5.60;;;0.90;;
37483;SDS011;23337;52.212;9.926;2024-03-25T11:51:58;2.50;;;1.60;;
37483;SDS011;23337;52.212;9.926;2024-03-25T11:54:26;3.53;;;1.30;;
37483;SDS011;23337;52.212;9.926;2024-03-25T11:56:52;6.80;;;1.13;;
37483;SDS011;23337;52.212;9.926;2024-03-25T11:59:19;5.60;;;1.63;;
37483;SDS011;23337;52.212;9.926;2024-03-25T12:01:45;3.97;;;0.93;;
37483;SDS011;23337;52.212;9.926;2024-03-25T12:04:12;3.70;;;1.43;;
37483;SDS011;23337;52.212;9.926;2024-03-25T12:06:38;5.67;;;1.07;;
37483;SDS011;23337;52.212;9.926;2024-03-25T12:09:04;10.73;;;2.00;;
37483;SDS011;23337;52.212;9.926;2024-03-25T12:11:48;3.43;;;0.80;;
37483;SDS011;23337;52.212;9.926;2024-03-25T12:14:15;4.57;;;1.30;;
37483;SDS011;23337;52.212;9.926;2024-03-25T12:16:41;2.90;;;1.00;;
37483;SDS011;23337;52.212;9.926;2024-03-25T12:19:07;4.70;;;1.13;;
37483;SDS011;23337;52.212;9.926;2024-03-25T12:21:33;4.07;;;1.60;;
37483;SDS011;23337;52.212;9.926;2024-03-25T12:23:59;2.97;;;1.10;;
37483;SDS011;23337;52.212;9.926;2024-03-25T12:26:25;5.80;;;1.10;;
37483;SDS011;23337;52.212;9.926;2024-03-25T12:28:51;2.63;;;1.30;;
37483;SDS011;23337;52.212;9.926;2024-03-25T12:31:17;9.37;;;1.83;;
37483;SDS011;23337;52.212;9.926;2024-03-25T12:33:44;5.30;;;1.57;;
37483;SDS011;23337;52.212;9.926;2024-03-25T12:36:13;5.87;;;1.80;;
37483;SDS011;23337;52.212;9.926;2024-03-25T12:38:39;4.30;;;1.30;;
37483;SDS011;23337;52.212;9.926;2024-03-25T12:43:31;3.70;;;1.30;;
37483;SDS011;23337;52.212;9.926;2024-03-25T12:45:58;3.67;;;1.40;;
37483;SDS011;23337;52.212;9.926;2024-03-25T12:48:24;4.53;;;1.70;;
37483;SDS011;23337;52.212;9.926;2024-03-25T12:50:50;7.03;;;1.70;;
37483;SDS011;23337;52.212;9.926;2024-03-25T12:53:17;4.47;;;1.80;;
37483;SDS011;23337;52.212;9.926;2024-03-25T12:55:44;6.93;;;1.27;;
37483;SDS011;23337;52.212;9.926;2024-03-25T12:58:10;4.30;;;1.33;;
37483;SDS011;23337;52.212;9.926;2024-03-25T13:00:36;4.33;;;1.70;;
37483;SDS011;23337;52.212;9.926;2024-03-25T13:03:03;6.13;;;1.67;;
37483;SDS011;23337;52.212;9.926;2024-03-25T13:05:29;4.67;;;1.60;;
37483;SDS011;23337;52.212;9.926;2024-03-25T13:07:55;4.37;;;1.77;;
37483;SDS011;23337;52.212;9.926;2024-03-25T13:10:22;4.30;;;1.30;;
37483;SDS011;23337;52.212;9.926;2024-03-25T13:12:47;6.27;;;1.27;;
37483;SDS011;23337;52.212;9.926;2024-03-25T13:15:14;6.10;;;1.50;;
37483;SDS011;23337;52.212;9.926;2024-03-25T13:17:40;8.87;;;1.50;;
37483;SDS011;23337;52.212;9.926;2024-03-25T13:20:06;3.20;;;1.67;;
37483;SDS011;23337;52.212;9.926;2024-03-25T13:22:32;6.60;;;1.77;;
37483;SDS011;23337;52.212;9.926;2024-03-25T13:24:58;5.27;;;1.77;;
37483;SDS011;23337;52.212;9.926;2024-03-25T13:27:25;3.33;;;1.63;;
37483;SDS011;23337;52.212;9.926;2024-03-25T13:29:51;5.63;;;1.87;;
37483;SDS011;23337;52.212;9.926;2024-03-25T13:32:20;3.30;;;1.20;;
37483;SDS011;23337;52.212;9.926;2024-03-25T13:34:46;7.37;;;2.20;;
37483;SDS011;23337;52.212;9.926;2024-03-25T13:37:12;3.13;;;1.00;;
37483;SDS011;23337;52.212;9.926;2024-03-25T13:39:38;6.63;;;1.70;;
37483;SDS011;23337;52.212;9.926;2024-03-25T13:42:04;2.87;;;1.37;;
37483;SDS011;23337;52.212;9.926;2024-03-25T13:44:30;5.07;;;1.13;;
37483;SDS011;23337;52.212;9.926;2024-03-25T13:46:56;7.47;;;1.70;;
37483;SDS011;23337;52.212;9.926;2024-03-25T13:49:22;4.07;;;1.40;;
37483;SDS011;23337;52.212;9.926;2024-03-25T13:51:58;3.17;;;1.20;;
37483;SDS011;23337;52.212;9.926;2024-03-25T13:54:27;4.13;;;1.83;;
37483;SDS011;23337;52.212;9.926;2024-03-25T13:56:54;3.93;;;1.13;;
37483;SDS011;23337;52.212;9.926;2024-03-25T13:59:20;4.50;;;1.73;;
37483;SDS011;23337;52.212;9.926;2024-03-25T14:01:46;5.53;;;1.60;;
37483;SDS011;23337;52.212;9.926;2024-03-25T14:04:12;3.67;;;1.20;;
37483;SDS011;23337;52.212;9.926;2024-03-25T14:06:39;3.17;;;1.40;;
37483;SDS011;23337;52.212;9.926;2024-03-25T14:09:05;7.20;;;1.30;;
37483;SDS011;23337;52.212;9.926;2024-03-25T14:11:35;10.03;;;3.13;;
37483;SDS011;23337;52.212;9.926;2024-03-25T14:14:01;5.97;;;1.27;;
37483;SDS011;23337;52.212;9.926;2024-03-25T14:16:30;4.90;;;1.17;;
37483;SDS011;23337;52.212;9.926;2024-03-25T14:18:56;4.70;;;1.53;;
37483;SDS011;23337;52.212;9.926;2024-03-25T14:21:22;4.20;;;1.20;;
37483;SDS011;23337;52.212;9.926;2024-03-25T14:23:48;7.87;;;1.90;;
37483;SDS011;23337;52.212;9.926;2024-03-25T14:26:14;6.90;;;1.40;;
37483;SDS011;23337;52.212;9.926;2024-03-25T14:28:40;4.07;;;1.50;;
37483;SDS011;23337;52.212;9.926;2024-03-25T14:31:06;4.03;;;2.10;;
37483;SDS011;23337;52.212;9.926;2024-03-25T14:33:32;4.83;;;1.27;;
37483;SDS011;23337;52.212;9.926;2024-03-25T14:35:58;4.50;;;1.77;;
37483;SDS011;23337;52.212;9.926;2024-03-25T14:38:24;5.57;;;1.50;;
37483;SDS011;23337;52.212;9.926;2024-03-25T14:40:50;7.50;;;2.10;;
37483;SDS011;23337;52.212;9.926;2024-03-25T14:43:18;4.60;;;1.43;;
37483;SDS011;23337;52.212;9.926;2024-03-25T14:45:47;7.73;;;1.83;;
37483;SDS011;23337;52.212;9.926;2024-03-25T14:48:13;3.90;;;1.50;;
37483;SDS011;23337;52.212;9.926;2024-03-25T14:50:39;6.87;;;1.67;;
37483;SDS011;23337;52.212;9.926;2024-03-25T14:53:05;8.43;;;2.03;;
37483;SDS011;23337;52.212;9.926;2024-03-25T14:55:31;8.00;;;1.70;;
37483;SDS011;23337;52.212;9.926;2024-03-25T14:57:58;5.40;;;1.33;;
37483;SDS011;23337;52.212;9.926;2024-03-25T15:00:24;4.97;;;1.63;;
37483;SDS011;23337;52.212;9.926;2024-03-25T15:02:53;8.23;;;1.40;;
37483;SDS011;23337;52.212;9.926;2024-03-25T15:05:19;5.53;;;1.20;;